sensor_id;sensor_type;location;lat;lon;timestamp;P1;durP1;ratioP1;P2;durP2;ratioP2
6898;SDS011;3488;42.616;23.350;2023-03-19T00:02:12;6.78;;;3.67;;
6898;SDS011;3488;42.616;23.350;2023-03-19T00:04:39;5.55;;;3.38;;
6898;SDS011;3488;42.616;23.350;2023-03-19T00:07:06;4.28;;;3.22;;
6898;SDS011;3488;42.616;23.350;2023-03-19T00:09:34;4.82;;;3.20;;
6898;SDS011;3488;42.616;23.350;2023-03-19T00:12:01;10.95;;;5.93;;
6898;SDS011;3488;42.616;23.350;2023-03-19T00:14:28;12.02;;;6.18;;
6898;SDS011;3488;42.616;23.350;2023-03-19T00:16:55;4.18;;;3.55;;
6898;SDS011;3488;42.616;23.350;2023-03-19T00:19:22;4.53;;;4.20;;
6898;SDS011;3488;42.616;23.350;2023-03-19T00:21:49;3.75;;;3.35;;
6898;SDS011;3488;42.616;23.350;2023-03-19T00:24:16;3.55;;;2.80;;
6898;SDS011;3488;42.616;23.350;2023-03-19T00:26:44;3.58;;;2.72;;
6898;SDS011;3488;42.616;23.350;2023-03-19T00:29:11;3.80;;;3.50;;
6898;SDS011;3488;42.616;23.350;2023-03-19T00:31:39;3.05;;;2.78;;
6898;SDS011;3488;42.616;23.350;2023-03-19T00:34:07;4.03;;;3.33;;
6898;SDS011;3488;42.616;23.350;2023-03-19T00:36:35;3.13;;;2.92;;
6898;SDS011;3488;42.616;23.350;2023-03-19T00:39:02;5.28;;;3.70;;
6898;SDS011;3488;42.616;23.350;2023-03-19T00:41:29;7.32;;;3.92;;
6898;SDS011;3488;42.616;23.350;2023-03-19T00:43:59;5.28;;;3.70;;
6898;SDS011;3488;42.616;23.350;2023-03-19T00:46:26;3.95;;;2.90;;
6898;SDS011;3488;42.616;23.350;2023-03-19T00:48:53;2.90;;;2.70;;
6898;SDS011;3488;42.616;23.350;2023-03-19T00:51:20;3.10;;;2.90;;
6898;SDS011;3488;42.616;23.350;2023-03-19T00:53:49;2.85;;;2.63;;
6898;SDS011;3488;42.616;23.350;2023-03-19T00:56:18;3.13;;;2.83;;
6898;SDS011;3488;42.616;23.350;2023-03-19T00:58:45;2.92;;;2.72;;
6898;SDS011;3488;42.616;23.350;2023-03-19T01:01:15;2.78;;;2.58;;
6898;SDS011;3488;42.616;23.350;2023-03-19T01:03:43;2.67;;;2.47;;
6898;SDS011;3488;42.616;23.350;2023-03-19T01:06:10;3.03;;;2.70;;
6898;SDS011;3488;42.616;23.350;2023-03-19T01:08:37;3.28;;;2.85;;
6898;SDS011;3488;42.616;23.350;2023-03-19T01:11:05;3.47;;;3.03;;
6898;SDS011;3488;42.616;23.350;2023-03-19T01:13:34;2.20;;;2.10;;
6898;SDS011;3488;42.616;23.350;2023-03-19T01:16:01;2.40;;;2.30;;
6898;SDS011;3488;42.616;23.350;2023-03-19T01:18:30;2.60;;;2.40;;
6898;SDS011;3488;42.616;23.350;2023-03-19T01:20:57;2.70;;;2.50;;
6898;SDS011;3488;42.616;23.350;2023-03-19T01:23:24;3.20;;;3.00;;
6898;SDS011;3488;42.616;23.350;2023-03-19T01:25:51;2.75;;;2.65;;
6898;SDS011;3488;42.616;23.350;2023-03-19T01:28:18;6.95;;;3.03;;
6898;SDS011;3488;42.616;23.350;2023-03-19T01:30:46;5.88;;;2.78;;
6898;SDS011;3488;42.616;23.350;2023-03-19T01:33:13;3.97;;;3.28;;
6898;SDS011;3488;42.616;23.350;2023-03-19T01:35:43;2.95;;;2.78;;
6898;SDS011;3488;42.616;23.350;2023-03-19T01:38:11;12.93;;;3.50;;
6898;SDS011;3488;42.616;23.350;2023-03-19T01:40:42;5.70;;;3.10;;
6898;SDS011;3488;42.616;23.350;2023-03-19T01:43:14;5.70;;;3.50;;
6898;SDS011;3488;42.616;23.350;2023-03-19T01:45:43;5.35;;;3.78;;
6898;SDS011;3488;42.616;23.350;2023-03-19T01:48:23;6.47;;;4.13;;
6898;SDS011;3488;42.616;23.350;2023-03-19T01:50:55;6.65;;;3.72;;
6898;SDS011;3488;42.616;23.350;2023-03-19T01:53:23;4.35;;;3.95;;
6898;SDS011;3488;42.616;23.350;2023-03-19T01:55:54;4.18;;;3.78;;
6898;SDS011;3488;42.616;23.350;2023-03-19T01:58:24;4.32;;;3.55;;
6898;SDS011;3488;42.616;23.350;2023-03-19T02:00:52;7.82;;;4.55;;
6898;SDS011;3488;42.616;23.350;2023-03-19T02:03:20;5.20;;;4.53;;
6898;SDS011;3488;42.616;23.350;2023-03-19T02:05:47;6.30;;;4.15;;
6898;SDS011;3488;42.616;23.350;2023-03-19T02:08:18;5.85;;;3.00;;
6898;SDS011;3488;42.616;23.350;2023-03-19T02:10:48;6.80;;;2.85;;
6898;SDS011;3488;42.616;23.350;2023-03-19T02:13:17;4.50;;;3.65;;
6898;SDS011;3488;42.616;23.350;2023-03-19T02:15:44;4.75;;;3.70;;
6898;SDS011;3488;42.616;23.350;2023-03-19T02:18:13;5.13;;;4.13;;
6898;SDS011;3488;42.616;23.350;2023-03-19T02:20:43;5.28;;;3.67;;
6898;SDS011;3488;42.616;23.350;2023-03-19T02:23:14;6.40;;;3.88;;
6898;SDS011;3488;42.616;23.350;2023-03-19T02:25:57;4.82;;;4.20;;
6898;SDS011;3488;42.616;23.350;2023-03-19T02:28:28;4.75;;;3.47;;
6898;SDS011;3488;42.616;23.350;2023-03-19T02:30:57;9.20;;;3.15;;
6898;SDS011;3488;42.616;23.350;2023-03-19T02:33:24;4.70;;;3.30;;
6898;SDS011;3488;42.616;23.350;2023-03-19T02:35:51;4.00;;;3.58;;
6898;SDS011;3488;42.616;23.350;2023-03-19T02:38:19;3.85;;;2.40;;
6898;SDS011;3488;42.616;23.350;2023-03-19T02:40:48;3.28;;;2.85;;
6898;SDS011;3488;42.616;23.350;2023-03-19T02:43:20;4.00;;;3.40;;
6898;SDS011;3488;42.616;23.350;2023-03-19T02:45:47;5.95;;;3.47;;
6898;SDS011;3488;42.616;23.350;2023-03-19T02:48:15;3.75;;;3.45;;
6898;SDS011;3488;42.616;23.350;2023-03-19T02:50:42;5.82;;;3.67;;
6898;SDS011;3488;42.616;23.350;2023-03-19T02:53:10;6.50;;;4.10;;
6898;SDS011;3488;42.616;23.350;2023-03-19T02:55:37;5.25;;;3.53;;
6898;SDS011;3488;42.616;23.350;2023-03-19T02:58:03;4.85;;;3.00;;
6898;SDS011;3488;42.616;23.350;2023-03-19T03:00:32;3.22;;;3.03;;
6898;SDS011;3488;42.616;23.350;2023-03-19T03:02:59;2.17;;;2.08;;
6898;SDS011;3488;42.616;23.350;2023-03-19T03:05:27;2.50;;;1.90;;
6898;SDS011;3488;42.616;23.350;2023-03-19T03:07:54;5.50;;;2.10;;
6898;SDS011;3488;42.616;23.350;2023-03-19T03:10:20;1.75;;;1.65;;
6898;SDS011;3488;42.616;23.350;2023-03-19T03:12:47;2.30;;;2.13;;
6898;SDS011;3488;42.616;23.350;2023-03-19T03:15:14;4.45;;;2.10;;
6898;SDS011;3488;42.616;23.350;2023-03-19T03:17:43;2.00;;;1.90;;
6898;SDS011;3488;42.616;23.350;2023-03-19T03:20:12;2.03;;;1.85;;
6898;SDS011;3488;42.616;23.350;2023-03-19T03:22:40;4.85;;;2.63;;
6898;SDS011;3488;42.616;23.350;2023-03-19T03:25:07;6.00;;;3.45;;
6898;SDS011;3488;42.616;23.350;2023-03-19T03:27:35;5.25;;;3.15;;
6898;SDS011;3488;42.616;23.350;2023-03-19T03:30:03;2.42;;;2.22;;
6898;SDS011;3488;42.616;23.350;2023-03-19T03:32:32;2.80;;;2.63;;
6898;SDS011;3488;42.616;23.350;2023-03-19T03:35:01;2.75;;;2.40;;
6898;SDS011;3488;42.616;23.350;2023-03-19T03:37:28;3.13;;;2.92;;
6898;SDS011;3488;42.616;23.350;2023-03-19T03:39:55;2.85;;;2.65;;
6898;SDS011;3488;42.616;23.350;2023-03-19T03:42:22;3.40;;;2.15;;
6898;SDS011;3488;42.616;23.350;2023-03-19T03:44:49;2.70;;;2.50;;
6898;SDS011;3488;42.616;23.350;2023-03-19T03:47:16;2.00;;;1.85;;
6898;SDS011;3488;42.616;23.350;2023-03-19T03:49:42;3.45;;;2.55;;
6898;SDS011;3488;42.616;23.350;2023-03-19T03:52:11;5.13;;;2.00;;
6898;SDS011;3488;42.616;23.350;2023-03-19T03:54:38;2.83;;;2.63;;
6898;SDS011;3488;42.616;23.350;2023-03-19T03:57:05;2.97;;;2.60;;
6898;SDS011;3488;42.616;23.350;2023-03-19T03:59:32;2.33;;;2.13;;
6898;SDS011;3488;42.616;23.350;2023-03-19T04:02:00;5.00;;;2.60;;
6898;SDS011;3488;42.616;23.350;2023-03-19T04:04:27;2.72;;;2.53;;
6898;SDS011;3488;42.616;23.350;2023-03-19T04:06:55;3.60;;;2.83;;
6898;SDS011;3488;42.616;23.350;2023-03-19T04:09:23;3.42;;;3.13;;
6898;SDS011;3488;42.616;23.350;2023-03-19T04:11:50;3.13;;;2.67;;
6898;SDS011;3488;42.616;23.350;2023-03-19T04:14:17;3.17;;;2.83;;
6898;SDS011;3488;42.616;23.350;2023-03-19T04:16:44;3.40;;;2.53;;
6898;SDS011;3488;42.616;23.350;2023-03-19T04:19:11;2.10;;;2.00;;
6898;SDS011;3488;42.616;23.350;2023-03-19T04:21:38;2.70;;;2.53;;
6898;SDS011;3488;42.616;23.350;2023-03-19T04:24:05;2.92;;;2.72;;
6898;SDS011;3488;42.616;23.350;2023-03-19T04:26:35;3.47;;;3.17;;
6898;SDS011;3488;42.616;23.350;2023-03-19T04:29:02;2.70;;;2.50;;
6898;SDS011;3488;42.616;23.350;2023-03-19T04:31:29;5.00;;;2.90;;
6898;SDS011;3488;42.616;23.350;2023-03-19T04:33:56;3.22;;;2.92;;
6898;SDS011;3488;42.616;23.350;2023-03-19T04:36:24;2.67;;;2.47;;
6898;SDS011;3488;42.616;23.350;2023-03-19T04:38:52;2.90;;;2.63;;
6898;SDS011;3488;42.616;23.350;2023-03-19T04:41:18;5.78;;;3.35;;
6898;SDS011;3488;42.616;23.350;2023-03-19T04:43:48;7.60;;;4.07;;
6898;SDS011;3488;42.616;23.350;2023-03-19T04:46:15;4.78;;;3.33;;
6898;SDS011;3488;42.616;23.350;2023-03-19T04:48:42;4.15;;;3.50;;
6898;SDS011;3488;42.616;23.350;2023-03-19T04:51:09;5.15;;;3.40;;
6898;SDS011;3488;42.616;23.350;2023-03-19T04:53:37;6.53;;;3.22;;
6898;SDS011;3488;42.616;23.350;2023-03-19T04:56:04;4.40;;;2.47;;
6898;SDS011;3488;42.616;23.350;2023-03-19T04:58:32;3.17;;;2.33;;
6898;SDS011;3488;42.616;23.350;2023-03-19T05:01:01;2.33;;;2.22;;
6898;SDS011;3488;42.616;23.350;2023-03-19T05:03:28;3.60;;;2.78;;
6898;SDS011;3488;42.616;23.350;2023-03-19T05:05:55;3.17;;;2.88;;
6898;SDS011;3488;42.616;23.350;2023-03-19T05:08:22;2.70;;;2.50;;
6898;SDS011;3488;42.616;23.350;2023-03-19T05:10:50;2.70;;;2.50;;
6898;SDS011;3488;42.616;23.350;2023-03-19T05:13:17;4.53;;;2.25;;
6898;SDS011;3488;42.616;23.350;2023-03-19T05:15:44;5.15;;;2.45;;
6898;SDS011;3488;42.616;23.350;2023-03-19T05:18:13;3.63;;;2.70;;
6898;SDS011;3488;42.616;23.350;2023-03-19T05:20:40;2.13;;;2.03;;
6898;SDS011;3488;42.616;23.350;2023-03-19T05:23:08;2.75;;;2.60;;
6898;SDS011;3488;42.616;23.350;2023-03-19T05:25:35;3.17;;;2.88;;
6898;SDS011;3488;42.616;23.350;2023-03-19T05:28:02;4.65;;;3.15;;
6898;SDS011;3488;42.616;23.350;2023-03-19T05:30:31;4.38;;;3.08;;
6898;SDS011;3488;42.616;23.350;2023-03-19T05:32:58;3.70;;;2.92;;
6898;SDS011;3488;42.616;23.350;2023-03-19T05:35:27;4.97;;;3.72;;
6898;SDS011;3488;42.616;23.350;2023-03-19T05:37:55;7.82;;;4.25;;
6898;SDS011;3488;42.616;23.350;2023-03-19T05:40:23;6.75;;;5.10;;
6898;SDS011;3488;42.616;23.350;2023-03-19T05:42:50;6.97;;;5.45;;
6898;SDS011;3488;42.616;23.350;2023-03-19T05:45:17;7.07;;;5.10;;
6898;SDS011;3488;42.616;23.350;2023-03-19T05:47:45;9.10;;;5.30;;
6898;SDS011;3488;42.616;23.350;2023-03-19T05:50:13;5.00;;;4.55;;
6898;SDS011;3488;42.616;23.350;2023-03-19T05:52:41;5.50;;;4.97;;
6898;SDS011;3488;42.616;23.350;2023-03-19T05:55:08;7.93;;;5.15;;
6898;SDS011;3488;42.616;23.350;2023-03-19T05:57:35;8.23;;;5.05;;
6898;SDS011;3488;42.616;23.350;2023-03-19T06:00:03;5.80;;;4.25;;
6898;SDS011;3488;42.616;23.350;2023-03-19T06:02:31;5.53;;;4.70;;
6898;SDS011;3488;42.616;23.350;2023-03-19T06:04:59;5.28;;;4.53;;
6898;SDS011;3488;42.616;23.350;2023-03-19T06:07:26;12.85;;;5.20;;
6898;SDS011;3488;42.616;23.350;2023-03-19T06:09:55;7.70;;;5.13;;
6898;SDS011;3488;42.616;23.350;2023-03-19T06:12:22;7.80;;;4.53;;
6898;SDS011;3488;42.616;23.350;2023-03-19T06:14:49;5.22;;;4.35;;
6898;SDS011;3488;42.616;23.350;2023-03-19T06:17:16;5.25;;;4.38;;
6898;SDS011;3488;42.616;23.350;2023-03-19T06:19:43;15.32;;;4.82;;
6898;SDS011;3488;42.616;23.350;2023-03-19T06:22:10;5.93;;;4.85;;
6898;SDS011;3488;42.616;23.350;2023-03-19T06:24:37;6.70;;;4.72;;
6898;SDS011;3488;42.616;23.350;2023-03-19T06:27:06;8.65;;;4.60;;
6898;SDS011;3488;42.616;23.350;2023-03-19T06:29:33;5.13;;;4.32;;
6898;SDS011;3488;42.616;23.350;2023-03-19T06:32:00;6.65;;;4.82;;
6898;SDS011;3488;42.616;23.350;2023-03-19T06:34:27;5.28;;;4.40;;
6898;SDS011;3488;42.616;23.350;2023-03-19T06:36:55;6.85;;;4.60;;
6898;SDS011;3488;42.616;23.350;2023-03-19T06:39:22;6.93;;;5.50;;
6898;SDS011;3488;42.616;23.350;2023-03-19T06:41:49;6.28;;;4.68;;
6898;SDS011;3488;42.616;23.350;2023-03-19T06:44:17;4.78;;;4.28;;
6898;SDS011;3488;42.616;23.350;2023-03-19T06:46:44;6.82;;;4.95;;
6898;SDS011;3488;42.616;23.350;2023-03-19T06:49:11;6.30;;;5.00;;
6898;SDS011;3488;42.616;23.350;2023-03-19T06:51:38;6.00;;;5.28;;
6898;SDS011;3488;42.616;23.350;2023-03-19T06:54:05;6.32;;;4.85;;
6898;SDS011;3488;42.616;23.350;2023-03-19T06:56:35;5.07;;;4.57;;
6898;SDS011;3488;42.616;23.350;2023-03-19T06:59:02;6.45;;;4.63;;
6898;SDS011;3488;42.616;23.350;2023-03-19T07:01:30;4.72;;;4.13;;
6898;SDS011;3488;42.616;23.350;2023-03-19T07:03:57;5.00;;;4.55;;
6898;SDS011;3488;42.616;23.350;2023-03-19T07:06:24;5.93;;;4.78;;
6898;SDS011;3488;42.616;23.350;2023-03-19T07:08:51;6.95;;;4.32;;
6898;SDS011;3488;42.616;23.350;2023-03-19T07:11:18;7.13;;;4.88;;
6898;SDS011;3488;42.616;23.350;2023-03-19T07:13:45;6.55;;;4.85;;
6898;SDS011;3488;42.616;23.350;2023-03-19T07:16:13;5.53;;;4.65;;
6898;SDS011;3488;42.616;23.350;2023-03-19T07:18:41;5.57;;;4.90;;
6898;SDS011;3488;42.616;23.350;2023-03-19T07:21:08;7.50;;;5.07;;
6898;SDS011;3488;42.616;23.350;2023-03-19T07:23:35;10.48;;;6.00;;
6898;SDS011;3488;42.616;23.350;2023-03-19T07:26:02;7.28;;;5.68;;
6898;SDS011;3488;42.616;23.350;2023-03-19T07:28:29;7.32;;;6.57;;
6898;SDS011;3488;42.616;23.350;2023-03-19T07:30:56;7.93;;;5.97;;
6898;SDS011;3488;42.616;23.350;2023-03-19T07:33:23;8.05;;;6.22;;
6898;SDS011;3488;42.616;23.350;2023-03-19T07:35:52;11.25;;;7.40;;
6898;SDS011;3488;42.616;23.350;2023-03-19T07:38:18;8.30;;;6.97;;
6898;SDS011;3488;42.616;23.350;2023-03-19T07:40:46;8.65;;;6.60;;
6898;SDS011;3488;42.616;23.350;2023-03-19T07:43:13;9.40;;;5.95;;
6898;SDS011;3488;42.616;23.350;2023-03-19T07:45:40;7.50;;;5.78;;
6898;SDS011;3488;42.616;23.350;2023-03-19T07:48:07;10.20;;;7.28;;
6898;SDS011;3488;42.616;23.350;2023-03-19T07:50:35;9.98;;;6.70;;
6898;SDS011;3488;42.616;23.350;2023-03-19T07:53:03;9.68;;;7.03;;
6898;SDS011;3488;42.616;23.350;2023-03-19T07:55:30;8.98;;;6.63;;
6898;SDS011;3488;42.616;23.350;2023-03-19T07:57:57;8.35;;;6.78;;
6898;SDS011;3488;42.616;23.350;2023-03-19T08:00:24;9.48;;;6.63;;
6898;SDS011;3488;42.616;23.350;2023-03-19T08:02:51;9.38;;;7.15;;
6898;SDS011;3488;42.616;23.350;2023-03-19T08:05:18;7.93;;;7.13;;
6898;SDS011;3488;42.616;23.350;2023-03-19T08:07:45;8.57;;;6.70;;
6898;SDS011;3488;42.616;23.350;2023-03-19T08:10:16;11.60;;;6.93;;
6898;SDS011;3488;42.616;23.350;2023-03-19T08:12:44;12.43;;;7.05;;
6898;SDS011;3488;42.616;23.350;2023-03-19T08:15:11;9.32;;;7.22;;
6898;SDS011;3488;42.616;23.350;2023-03-19T08:17:39;6.90;;;6.28;;
6898;SDS011;3488;42.616;23.350;2023-03-19T08:20:06;13.35;;;7.60;;
6898;SDS011;3488;42.616;23.350;2023-03-19T08:22:35;11.05;;;7.13;;
6898;SDS011;3488;42.616;23.350;2023-03-19T08:25:04;8.82;;;6.45;;
6898;SDS011;3488;42.616;23.350;2023-03-19T08:27:33;11.82;;;6.85;;
6898;SDS011;3488;42.616;23.350;2023-03-19T08:30:00;9.50;;;7.53;;
6898;SDS011;3488;42.616;23.350;2023-03-19T08:32:28;7.95;;;6.45;;
6898;SDS011;3488;42.616;23.350;2023-03-19T08:34:55;7.25;;;6.50;;
6898;SDS011;3488;42.616;23.350;2023-03-19T08:37:22;11.27;;;6.93;;
6898;SDS011;3488;42.616;23.350;2023-03-19T08:39:49;11.88;;;6.70;;
6898;SDS011;3488;42.616;23.350;2023-03-19T08:42:16;22.92;;;13.45;;
6898;SDS011;3488;42.616;23.350;2023-03-19T08:44:45;7.28;;;6.45;;
6898;SDS011;3488;42.616;23.350;2023-03-19T08:47:11;8.88;;;6.68;;
6898;SDS011;3488;42.616;23.350;2023-03-19T08:49:38;8.15;;;6.60;;
6898;SDS011;3488;42.616;23.350;2023-03-19T08:52:06;9.60;;;7.03;;
6898;SDS011;3488;42.616;23.350;2023-03-19T08:54:33;9.35;;;7.00;;
6898;SDS011;3488;42.616;23.350;2023-03-19T08:57:01;9.13;;;7.30;;
6898;SDS011;3488;42.616;23.350;2023-03-19T08:59:28;11.98;;;7.20;;
6898;SDS011;3488;42.616;23.350;2023-03-19T09:01:57;11.23;;;7.43;;
6898;SDS011;3488;42.616;23.350;2023-03-19T09:04:24;10.15;;;7.07;;
6898;SDS011;3488;42.616;23.350;2023-03-19T09:06:51;9.25;;;7.07;;
6898;SDS011;3488;42.616;23.350;2023-03-19T09:09:19;10.82;;;7.13;;
6898;SDS011;3488;42.616;23.350;2023-03-19T09:11:47;8.45;;;6.88;;
6898;SDS011;3488;42.616;23.350;2023-03-19T09:14:15;12.13;;;7.50;;
6898;SDS011;3488;42.616;23.350;2023-03-19T09:16:44;17.25;;;8.05;;
6898;SDS011;3488;42.616;23.350;2023-03-19T09:19:13;11.00;;;7.22;;
6898;SDS011;3488;42.616;23.350;2023-03-19T09:21:40;11.55;;;7.55;;
6898;SDS011;3488;42.616;23.350;2023-03-19T09:24:08;10.55;;;7.00;;
6898;SDS011;3488;42.616;23.350;2023-03-19T09:26:36;9.95;;;7.40;;
6898;SDS011;3488;42.616;23.350;2023-03-19T09:29:03;13.20;;;8.25;;
6898;SDS011;3488;42.616;23.350;2023-03-19T09:31:30;11.25;;;8.15;;
6898;SDS011;3488;42.616;23.350;2023-03-19T09:34:00;12.68;;;7.95;;
6898;SDS011;3488;42.616;23.350;2023-03-19T09:36:29;9.70;;;7.30;;
6898;SDS011;3488;42.616;23.350;2023-03-19T09:38:56;11.05;;;7.82;;
6898;SDS011;3488;42.616;23.350;2023-03-19T09:41:26;10.82;;;7.53;;
6898;SDS011;3488;42.616;23.350;2023-03-19T09:44:00;10.55;;;8.32;;
6898;SDS011;3488;42.616;23.350;2023-03-19T09:46:35;10.05;;;7.90;;
6898;SDS011;3488;42.616;23.350;2023-03-19T09:49:13;10.15;;;7.47;;
6898;SDS011;3488;42.616;23.350;2023-03-19T09:51:49;8.80;;;6.95;;
6898;SDS011;3488;42.616;23.350;2023-03-19T09:54:24;9.48;;;7.38;;
6898;SDS011;3488;42.616;23.350;2023-03-19T09:56:54;8.48;;;7.55;;
6898;SDS011;3488;42.616;23.350;2023-03-19T09:59:22;11.60;;;7.75;;
6898;SDS011;3488;42.616;23.350;2023-03-19T10:01:52;11.00;;;7.85;;
6898;SDS011;3488;42.616;23.350;2023-03-19T10:04:40;8.13;;;7.18;;
6898;SDS011;3488;42.616;23.350;2023-03-19T10:07:16;9.13;;;8.05;;
6898;SDS011;3488;42.616;23.350;2023-03-19T10:13:01;11.65;;;9.32;;
6898;SDS011;3488;42.616;23.350;2023-03-19T10:15:38;14.68;;;8.45;;
6898;SDS011;3488;42.616;23.350;2023-03-19T10:18:08;10.93;;;8.07;;
6898;SDS011;3488;42.616;23.350;2023-03-19T10:20:45;13.45;;;8.48;;
6898;SDS011;3488;42.616;23.350;2023-03-19T10:23:23;11.00;;;8.10;;
6898;SDS011;3488;42.616;23.350;2023-03-19T10:25:58;11.63;;;8.48;;
6898;SDS011;3488;42.616;23.350;2023-03-19T10:28:28;15.85;;;9.57;;
6898;SDS011;3488;42.616;23.350;2023-03-19T10:30:57;11.60;;;8.90;;
6898;SDS011;3488;42.616;23.350;2023-03-19T10:33:35;12.32;;;9.07;;
6898;SDS011;3488;42.616;23.350;2023-03-19T10:36:11;8.55;;;7.43;;
6898;SDS011;3488;42.616;23.350;2023-03-19T10:38:41;11.43;;;8.02;;
6898;SDS011;3488;42.616;23.350;2023-03-19T10:41:26;12.25;;;8.50;;
6898;SDS011;3488;42.616;23.350;2023-03-19T10:44:00;15.30;;;8.88;;
6898;SDS011;3488;42.616;23.350;2023-03-19T10:46:36;12.98;;;8.63;;
6898;SDS011;3488;42.616;23.350;2023-03-19T10:49:04;8.90;;;7.95;;
6898;SDS011;3488;42.616;23.350;2023-03-19T10:51:36;11.18;;;9.13;;
6898;SDS011;3488;42.616;23.350;2023-03-19T10:54:14;10.55;;;7.68;;
6898;SDS011;3488;42.616;23.350;2023-03-19T10:56:45;10.48;;;7.30;;
6898;SDS011;3488;42.616;23.350;2023-03-19T10:59:19;9.85;;;7.80;;
6898;SDS011;3488;42.616;23.350;2023-03-19T11:01:48;13.20;;;7.65;;
6898;SDS011;3488;42.616;23.350;2023-03-19T11:04:16;10.98;;;7.40;;
6898;SDS011;3488;42.616;23.350;2023-03-19T11:06:47;11.73;;;8.40;;
6898;SDS011;3488;42.616;23.350;2023-03-19T11:09:20;12.98;;;7.88;;
6898;SDS011;3488;42.616;23.350;2023-03-19T11:11:53;12.13;;;8.43;;
6898;SDS011;3488;42.616;23.350;2023-03-19T11:14:25;8.88;;;7.97;;
6898;SDS011;3488;42.616;23.350;2023-03-19T11:17:02;10.75;;;8.25;;
6898;SDS011;3488;42.616;23.350;2023-03-19T11:19:32;12.68;;;7.93;;
6898;SDS011;3488;42.616;23.350;2023-03-19T11:22:09;10.90;;;7.72;;
6898;SDS011;3488;42.616;23.350;2023-03-19T11:24:47;8.05;;;6.88;;
6898;SDS011;3488;42.616;23.350;2023-03-19T11:27:16;10.10;;;7.95;;
6898;SDS011;3488;42.616;23.350;2023-03-19T11:29:44;10.10;;;7.00;;
6898;SDS011;3488;42.616;23.350;2023-03-19T11:32:15;9.10;;;6.60;;
6898;SDS011;3488;42.616;23.350;2023-03-19T11:34:51;7.65;;;5.90;;
6898;SDS011;3488;42.616;23.350;2023-03-19T11:37:25;6.57;;;5.90;;
6898;SDS011;3488;42.616;23.350;2023-03-19T11:40:03;11.18;;;6.80;;
6898;SDS011;3488;42.616;23.350;2023-03-19T11:42:50;7.50;;;6.30;;
6898;SDS011;3488;42.616;23.350;2023-03-19T11:45:29;7.85;;;6.10;;
6898;SDS011;3488;42.616;23.350;2023-03-19T11:48:04;9.00;;;7.32;;
6898;SDS011;3488;42.616;23.350;2023-03-19T11:50:47;8.88;;;7.00;;
6898;SDS011;3488;42.616;23.350;2023-03-19T11:53:21;10.40;;;7.00;;
6898;SDS011;3488;42.616;23.350;2023-03-19T11:55:58;9.05;;;6.25;;
6898;SDS011;3488;42.616;23.350;2023-03-19T11:58:36;8.15;;;6.25;;
6898;SDS011;3488;42.616;23.350;2023-03-19T12:01:16;9.32;;;6.30;;
6898;SDS011;3488;42.616;23.350;2023-03-19T12:04:10;8.40;;;6.32;;
6898;SDS011;3488;42.616;23.350;2023-03-19T12:06:48;8.35;;;6.65;;
6898;SDS011;3488;42.616;23.350;2023-03-19T12:09:26;8.63;;;7.20;;
6898;SDS011;3488;42.616;23.350;2023-03-19T12:12:05;10.75;;;6.55;;
6898;SDS011;3488;42.616;23.350;2023-03-19T12:14:41;9.38;;;6.93;;
6898;SDS011;3488;42.616;23.350;2023-03-19T12:17:24;11.07;;;7.35;;
6898;SDS011;3488;42.616;23.350;2023-03-19T12:20:10;9.68;;;7.85;;
6898;SDS011;3488;42.616;23.350;2023-03-19T12:22:51;10.07;;;6.90;;
6898;SDS011;3488;42.616;23.350;2023-03-19T12:25:41;8.82;;;7.93;;
6898;SDS011;3488;42.616;23.350;2023-03-19T12:28:23;11.43;;;7.82;;
6898;SDS011;3488;42.616;23.350;2023-03-19T12:31:02;7.68;;;6.88;;
6898;SDS011;3488;42.616;23.350;2023-03-19T12:33:57;7.97;;;6.43;;
6898;SDS011;3488;42.616;23.350;2023-03-19T12:36:40;7.93;;;6.05;;
6898;SDS011;3488;42.616;23.350;2023-03-19T12:39:16;6.95;;;5.82;;
6898;SDS011;3488;42.616;23.350;2023-03-19T12:41:47;12.18;;;6.25;;
6898;SDS011;3488;42.616;23.350;2023-03-19T12:44:18;9.65;;;5.93;;
6898;SDS011;3488;42.616;23.350;2023-03-19T12:46:53;7.75;;;6.80;;
6898;SDS011;3488;42.616;23.350;2023-03-19T12:49:23;10.13;;;6.18;;
6898;SDS011;3488;42.616;23.350;2023-03-19T12:51:56;9.68;;;6.47;;
6898;SDS011;3488;42.616;23.350;2023-03-19T12:54:26;12.57;;;6.80;;
6898;SDS011;3488;42.616;23.350;2023-03-19T12:57:00;9.48;;;5.97;;
6898;SDS011;3488;42.616;23.350;2023-03-19T12:59:35;7.35;;;5.88;;
6898;SDS011;3488;42.616;23.350;2023-03-19T13:02:09;5.90;;;5.07;;
6898;SDS011;3488;42.616;23.350;2023-03-19T13:04:49;6.57;;;5.30;;
6898;SDS011;3488;42.616;23.350;2023-03-19T13:07:21;7.57;;;4.88;;
6898;SDS011;3488;42.616;23.350;2023-03-19T13:09:56;7.72;;;5.93;;
6898;SDS011;3488;42.616;23.350;2023-03-19T13:12:26;9.15;;;6.53;;
6898;SDS011;3488;42.616;23.350;2023-03-19T13:14:58;11.50;;;6.03;;
6898;SDS011;3488;42.616;23.350;2023-03-19T13:17:33;7.82;;;5.78;;
6898;SDS011;3488;42.616;23.350;2023-03-19T13:20:13;9.63;;;6.15;;
6898;SDS011;3488;42.616;23.350;2023-03-19T13:22:46;6.80;;;6.05;;
6898;SDS011;3488;42.616;23.350;2023-03-19T13:25:20;6.75;;;5.90;;
6898;SDS011;3488;42.616;23.350;2023-03-19T13:27:51;11.05;;;6.00;;
6898;SDS011;3488;42.616;23.350;2023-03-19T13:30:21;7.00;;;5.70;;
6898;SDS011;3488;42.616;23.350;2023-03-19T13:32:51;8.68;;;5.65;;
6898;SDS011;3488;42.616;23.350;2023-03-19T13:35:27;8.60;;;5.18;;
6898;SDS011;3488;42.616;23.350;2023-03-19T13:38:14;9.13;;;6.03;;
6898;SDS011;3488;42.616;23.350;2023-03-19T13:40:46;9.02;;;5.90;;
6898;SDS011;3488;42.616;23.350;2023-03-19T13:46:38;7.68;;;5.25;;
6898;SDS011;3488;42.616;23.350;2023-03-19T13:49:22;5.90;;;4.85;;
6898;SDS011;3488;42.616;23.350;2023-03-19T13:51:54;5.55;;;4.97;;
6898;SDS011;3488;42.616;23.350;2023-03-19T13:54:36;7.25;;;5.20;;
6898;SDS011;3488;42.616;23.350;2023-03-19T14:05:47;5.55;;;5.05;;
6898;SDS011;3488;42.616;23.350;2023-03-19T14:08:17;11.57;;;5.53;;
6898;SDS011;3488;42.616;23.350;2023-03-19T14:10:47;5.10;;;4.65;;
6898;SDS011;3488;42.616;23.350;2023-03-19T14:13:27;8.90;;;5.10;;
6898;SDS011;3488;42.616;23.350;2023-03-19T14:16:00;6.80;;;4.70;;
6898;SDS011;3488;42.616;23.350;2023-03-19T14:18:34;5.43;;;4.82;;
6898;SDS011;3488;42.616;23.350;2023-03-19T14:21:05;9.07;;;5.88;;
6898;SDS011;3488;42.616;23.350;2023-03-19T14:23:37;5.90;;;5.20;;
6898;SDS011;3488;42.616;23.350;2023-03-19T14:26:12;11.32;;;4.97;;
6898;SDS011;3488;42.616;23.350;2023-03-19T14:28:46;6.68;;;4.63;;
6898;SDS011;3488;42.616;23.350;2023-03-19T14:31:21;6.72;;;4.68;;
6898;SDS011;3488;42.616;23.350;2023-03-19T14:33:57;5.32;;;4.82;;
6898;SDS011;3488;42.616;23.350;2023-03-19T14:36:27;6.68;;;4.88;;
6898;SDS011;3488;42.616;23.350;2023-03-19T14:38:56;6.75;;;5.07;;
6898;SDS011;3488;42.616;23.350;2023-03-19T14:41:26;9.80;;;4.72;;
6898;SDS011;3488;42.616;23.350;2023-03-19T14:44:09;6.38;;;4.95;;
6898;SDS011;3488;42.616;23.350;2023-03-19T14:47:01;5.85;;;5.30;;
6898;SDS011;3488;42.616;23.350;2023-03-19T14:52:50;4.78;;;4.30;;
6898;SDS011;3488;42.616;23.350;2023-03-19T14:55:23;5.15;;;4.55;;
6898;SDS011;3488;42.616;23.350;2023-03-19T14:57:59;8.48;;;5.13;;
6898;SDS011;3488;42.616;23.350;2023-03-19T15:00:26;9.13;;;6.30;;
6898;SDS011;3488;42.616;23.350;2023-03-19T15:02:54;6.75;;;4.28;;
6898;SDS011;3488;42.616;23.350;2023-03-19T15:05:24;6.65;;;4.70;;
6898;SDS011;3488;42.616;23.350;2023-03-19T15:07:55;8.73;;;5.13;;
6898;SDS011;3488;42.616;23.350;2023-03-19T15:10:27;5.72;;;4.65;;
6898;SDS011;3488;42.616;23.350;2023-03-19T15:13:02;5.75;;;5.25;;
6898;SDS011;3488;42.616;23.350;2023-03-19T15:15:57;8.30;;;5.47;;
6898;SDS011;3488;42.616;23.350;2023-03-19T15:18:34;5.55;;;4.85;;
6898;SDS011;3488;42.616;23.350;2023-03-19T15:21:03;5.78;;;4.70;;
6898;SDS011;3488;42.616;23.350;2023-03-19T15:23:31;8.30;;;6.47;;
6898;SDS011;3488;42.616;23.350;2023-03-19T15:25:59;11.27;;;6.90;;
6898;SDS011;3488;42.616;23.350;2023-03-19T15:28:27;9.07;;;6.68;;
6898;SDS011;3488;42.616;23.350;2023-03-19T15:30:59;7.30;;;5.65;;
6898;SDS011;3488;42.616;23.350;2023-03-19T15:33:30;5.30;;;4.60;;
6898;SDS011;3488;42.616;23.350;2023-03-19T15:36:00;7.57;;;5.68;;